Time;durP1;ratioP1;P1;durP2;ratioP2;P2;SDS_P1;SDS_P2;PMS_P1;PMS_P2;Temp;Humidity;BMP_temperature;BMP_pressure;BME280_temperature;BME280_humidity;BME280_pressure;Samples;Min_cycle;Max_cycle;Signal;HPM_P1;HPM_P2
2021/03/07 00:00:42;;;;;;;24.67;19.08;;;;;;;3.71;60.53;101086.75;4999419;28;20066;-61
2021/03/07 00:03:10;;;;;;;27.52;20.25;;;;;;;3.73;60.70;101092.88;4998783;28;20402;-61
2021/03/07 00:05:44;;;;;;;24.85;19.40;;;;;;;3.71;60.34;101091.88;5015114;28;20038;-61
2021/03/07 00:08:12;;;;;;;26.50;19.08;;;;;;;3.70;60.56;101095.25;5015128;28;20103;-61
2021/03/07 00:10:45;;;;;;;33.30;20.23;;;;;;;3.66;60.97;101095.03;5016072;28;20077;-61
2021/03/07 00:13:17;;;;;;;24.73;19.07;;;;;;;3.64;60.67;101085.50;5016221;28;20034;-61
2021/03/07 00:15:47;;;;;;;25.63;19.58;;;;;;;3.63;60.87;101087.19;5014685;28;20030;-61
2021/03/07 00:18:22;;;;;;;26.50;19.30;;;;;;;3.61;60.36;101081.09;5014417;28;20524;-60
2021/03/07 00:20:53;;;;;;;29.55;19.83;;;;;;;3.61;60.49;101083.66;4998263;28;20087;-61
2021/03/07 00:23:21;;;;;;;23.48;19.65;;;;;;;3.61;60.71;101082.75;5016033;28;20038;-60
2021/03/07 00:25:52;;;;;;;33.40;20.95;;;;;;;3.59;60.46;101079.19;5015845;28;20034;-61
2021/03/07 00:28:20;;;;;;;24.85;18.08;;;;;;;3.60;60.77;101080.97;5015937;28;20128;-60
2021/03/07 00:30:51;;;;;;;27.98;20.35;;;;;;;3.58;60.54;101083.44;5016045;28;20034;-60
2021/03/07 00:33:24;;;;;;;29.40;19.80;;;;;;;3.57;60.65;101080.81;4998915;28;20489;-60
2021/03/07 00:35:58;;;;;;;27.35;20.48;;;;;;;3.56;60.68;101079.03;5014627;28;20072;-61
2021/03/07 00:38:29;;;;;;;29.10;19.67;;;;;;;3.54;60.58;101081.50;5015876;28;20069;-60
2021/03/07 00:41:00;;;;;;;30.73;19.00;;;;;;;3.54;61.08;101086.59;5015163;28;20045;-61
2021/03/07 00:43:29;;;;;;;27.77;19.75;;;;;;;3.55;61.00;101087.50;5015794;28;20041;-60
2021/03/07 00:46:03;;;;;;;30.27;19.85;;;;;;;3.54;60.79;101088.31;5015648;28;20493;-61
2021/03/07 00:48:40;;;;;;;24.33;19.95;;;;;;;3.53;60.99;101089.09;4998013;28;20052;-61
2021/03/07 00:51:14;;;;;;;23.85;19.70;;;;;;;3.53;60.47;101083.97;5014563;28;20045;-61
2021/03/07 00:53:45;;;;;;;28.75;21.45;;;;;;;3.53;61.33;101083.97;5014256;28;20041;-61
2021/03/07 00:56:13;;;;;;;30.60;20.65;;;;;;;3.53;61.12;101089.09;5014812;28;20125;-61
2021/03/07 00:58:45;;;;;;;28.60;21.10;;;;;;;3.53;60.64;101089.97;5012877;28;20576;-60
2021/03/07 01:01:13;;;;;;;29.67;20.17;;;;;;;3.51;61.20;101086.41;5015218;28;20112;-61
2021/03/07 01:03:43;;;;;;;27.42;20.63;;;;;;;3.51;60.75;101086.41;4997605;28;20064;-61
2021/03/07 01:06:16;;;;;;;35.47;21.42;;;;;;;3.50;60.91;101089.81;5015315;28;20037;-61
2021/03/07 01:08:50;;;;;;;27.33;20.02;;;;;;;3.48;61.01;101079.44;5013628;28;20030;-60
2021/03/07 01:11:19;;;;;;;25.90;20.85;;;;;;;3.46;60.94;101083.56;5015167;28;20133;-60
2021/03/07 01:13:47;;;;;;;28.10;20.48;;;;;;;3.46;60.58;101077.59;5014994;28;20401;-60
2021/03/07 01:16:18;;;;;;;25.38;19.40;;;;;;;3.48;60.99;101074.31;5014732;28;20038;-61
2021/03/07 01:18:54;;;;;;;27.58;19.73;;;;;;;3.46;60.64;101065.63;5014140;28;20034;-61
2021/03/07 01:21:25;;;;;;;26.83;19.33;;;;;;;3.46;61.12;101063.06;5014900;28;20118;-61
2021/03/07 01:23:56;;;;;;;23.00;18.00;;;;;;;3.46;61.03;101063.06;5015118;28;20061;-61
2021/03/07 01:26:24;;;;;;;26.08;19.00;;;;;;;3.46;60.87;101064.78;5013655;28;20030;-61
2021/03/07 01:28:57;;;;;;;23.35;17.30;;;;;;;3.46;60.95;101068.19;5013679;28;20030;-61
2021/03/07 01:31:31;;;;;;;21.23;16.50;;;;;;;3.46;60.58;101057.06;5014424;28;20072;-61
2021/03/07 01:34:02;;;;;;;21.38;15.88;;;;;;;3.47;60.74;101054.59;5014729;28;20042;-60
2021/03/07 01:36:33;;;;;;;20.95;15.57;;;;;;;3.46;61.04;101050.25;5015017;28;20565;-60
2021/03/07 01:39:07;;;;;;;20.25;15.15;;;;;;;3.47;60.90;101046.03;5014465;28;20034;-61
2021/03/07 01:41:37;;;;;;;18.60;14.55;;;;;;;3.47;61.26;101041.78;5014733;28;20458;-61
2021/03/07 01:44:08;;;;;;;20.85;13.20;;;;;;;3.46;60.97;101024.63;5013336;28;20066;-60
2021/03/07 01:46:34;;;;;;;15.57;13.40;;;;;;;3.46;61.21;101039.13;5014448;28;20096;-60
2021/03/07 01:49:05;;;;;;;21.27;13.85;;;;;;;3.44;61.10;101028.78;5013198;28;20030;-61
2021/03/07 01:51:33;;;;;;;20.33;13.95;;;;;;;3.43;60.69;101028.69;5014349;28;20049;-61
2021/03/07 01:54:01;;;;;;;18.88;13.43;;;;;;;3.43;60.67;101026.13;5013144;28;20524;-60
2021/03/07 01:56:35;;;;;;;19.85;13.93;;;;;;;3.41;60.92;101017.47;5014723;28;20045;-61
2021/03/07 01:59:05;;;;;;;18.42;13.98;;;;;;;3.40;61.28;101019.16;5014321;28;20057;-60
2021/03/07 02:01:33;;;;;;;15.77;12.93;;;;;;;3.39;61.22;101009.69;5014014;28;20042;-60
2021/03/07 02:04:04;;;;;;;18.40;13.23;;;;;;;3.37;60.72;101008.72;5013138;28;20037;-60
2021/03/07 02:06:34;;;;;;;17.20;13.15;;;;;;;3.37;61.06;100998.47;4996661;28;20030;-60
2021/03/07 02:09:08;;;;;;;14.18;12.13;;;;;;;3.37;61.36;101000.13;5013155;28;20091;-60
2021/03/07 02:11:45;;;;;;;19.98;13.65;;;;;;;3.35;61.60;100994.91;5014258;28;20051;-61
2021/03/07 02:14:14;;;;;;;15.68;11.75;;;;;;;3.34;61.06;100991.47;5014118;28;20045;-60
2021/03/07 02:16:48;;;;;;;18.42;12.57;;;;;;;3.35;61.09;100997.47;4996342;28;20061;-60
2021/03/07 02:19:20;;;;;;;18.45;13.05;;;;;;;3.33;60.99;100987.16;5013945;28;20034;-60
2021/03/07 02:22:00;;;;;;;17.60;13.30;;;;;;;3.34;60.99;100988.91;5012669;28;20033;-61
2021/03/07 02:24:34;;;;;;;20.33;13.10;;;;;;;3.33;60.84;100978.56;5012615;28;20041;-60
2021/03/07 02:27:02;;;;;;;17.35;12.88;;;;;;;3.31;60.81;100975.00;5013888;28;20030;-60
2021/03/07 02:29:33;;;;;;;15.63;12.77;;;;;;;3.29;61.19;100974.94;5014319;28;20041;-60
2021/03/07 02:32:08;;;;;;;17.15;13.75;;;;;;;3.29;61.01;100967.25;5013834;28;20030;-60
2021/03/07 02:34:50;;;;;;;18.48;13.55;;;;;;;3.28;60.55;100974.81;5014077;28;20037;-60
2021/03/07 02:37:25;;;;;;;19.00;13.27;;;;;;;3.26;61.01;100961.94;5012667;28;20501;-60
2021/03/07 02:40:00;;;;;;;17.05;13.10;;;;;;;3.28;60.83;100959.44;5013688;28;20030;-61
2021/03/07 02:42:33;;;;;;;22.67;13.75;;;;;;;3.25;61.25;100952.47;5013919;28;20417;-61
2021/03/07 02:45:05;;;;;;;20.43;14.50;;;;;;;3.23;60.83;100948.94;5013621;28;20088;-60
2021/03/07 02:47:36;;;;;;;21.65;14.15;;;;;;;3.23;61.29;100950.63;5013755;28;20303;-61
2021/03/07 02:50:12;;;;;;;17.90;13.63;;;;;;;3.21;61.23;100950.50;5013634;28;20049;-60
2021/03/07 02:52:49;;;;;;;18.30;12.80;;;;;;;3.20;61.27;100946.16;5012730;28;20096;-61
2021/03/07 02:55:22;;;;;;;22.77;15.20;;;;;;;3.18;61.26;100945.22;5014022;28;20504;-60
2021/03/07 02:57:55;;;;;;;19.30;14.48;;;;;;;3.17;61.46;100943.44;5012437;28;20069;-61
2021/03/07 03:00:29;;;;;;;21.65;14.00;;;;;;;3.14;60.96;100941.56;5012306;28;20397;-61
2021/03/07 03:03:02;;;;;;;27.67;15.68;;;;;;;3.15;60.86;100933.09;5013480;28;20095;-61
2021/03/07 03:05:34;;;;;;;21.50;13.55;;;;;;;3.15;61.10;100942.47;5012769;28;20493;-60
2021/03/07 03:08:13;;;;;;;22.52;15.05;;;;;;;3.14;61.08;100940.69;4996109;28;20111;-60
2021/03/07 03:10:50;;;;;;;27.63;14.25;;;;;;;3.13;61.03;100934.66;5013584;28;20046;-61
2021/03/07 03:13:24;;;;;;;17.90;14.15;;;;;;;3.11;61.27;100935.38;5011928;28;20034;-61
2021/03/07 03:16:00;;;;;;;18.95;14.85;;;;;;;3.10;60.92;100938.72;5013998;28;20117;-60
2021/03/07 03:18:33;;;;;;;24.25;15.63;;;;;;;3.11;61.32;100937.94;5012512;28;20030;-60
2021/03/07 03:21:11;;;;;;;26.70;14.43;;;;;;;3.09;61.00;100929.28;5013352;28;20034;-61
2021/03/07 03:23:46;;;;;;;24.38;14.82;;;;;;;3.09;61.09;100931.84;5017083;28;20041;-60
2021/03/07 03:26:20;;;;;;;20.05;15.05;;;;;;;3.06;61.14;100927.44;5016057;28;20033;-60
2021/03/07 03:28:56;;;;;;;26.15;15.50;;;;;;;3.07;61.14;100926.63;5016043;28;20502;-61
2021/03/07 03:31:27;;;;;;;24.40;14.80;;;;;;;3.05;61.02;100931.66;4999503;28;20417;-61
2021/03/07 03:34:01;;;;;;;18.92;15.25;;;;;;;3.04;60.96;100935.00;5015739;28;20091;-61
2021/03/07 03:36:35;;;;;;;20.55;14.65;;;;;;;3.02;61.41;100933.16;5017171;28;20038;-60
2021/03/07 03:39:18;;;;;;;22.58;15.38;;;;;;;3.01;60.99;100933.94;5015794;28;20478;-61
2021/03/07 03:41:53;;;;;;;22.00;14.80;;;;;;;2.99;61.18;100928.75;5016830;28;20037;-60
2021/03/07 03:44:24;;;;;;;;;;;;;;;2.97;60.95;100931.97;5017195;28;20042;-61
2021/03/07 03:46:56;;;;;;;23.63;14.95;;;;;;;2.96;60.95;100931.09;5016434;28;20379;-60
2021/03/07 03:49:43;;;;;;;21.77;14.35;;;;;;;2.92;60.83;100925.72;4999354;28;20036;-60
2021/03/07 03:52:14;;;;;;;24.27;15.85;;;;;;;2.91;61.35;100935.03;5015429;28;20034;-60
2021/03/07 03:55:03;;;;;;;21.17;14.52;;;;;;;2.90;60.78;100928.16;5015436;28;20030;-61
2021/03/07 03:57:39;;;;;;;26.02;16.48;;;;;;;2.87;60.91;100925.44;5016540;28;20030;-60
2021/03/07 04:00:15;;;;;;;20.23;14.85;;;;;;;2.86;61.36;100928.78;4998948;28;20034;-60
2021/03/07 04:02:46;;;;;;;23.27;14.73;;;;;;;2.85;61.23;100922.75;4998306;28;20524;-60
2021/03/07 04:05:19;;;;;;;19.67;14.68;;;;;;;2.84;61.35;100921.00;5016315;28;20033;-60
2021/03/07 04:07:55;;;;;;;19.73;13.98;;;;;;;2.85;60.92;100920.19;5016758;28;20034;-61
2021/03/07 04:10:27;;;;;;;29.48;15.65;;;;;;;2.83;61.13;100924.34;5016326;28;20112;-61
2021/03/07 04:13:01;;;;;;;20.30;15.48;;;;;;;2.82;61.12;100926.81;5016403;28;20116;-61
2021/03/07 04:15:29;;;;;;;;;;;;;;;2.79;61.05;100921.50;5016667;28;20042;-60
2021/03/07 04:18:09;;;;;;;25.08;15.93;;;;;;;2.79;61.06;100922.41;5014651;28;20434;-60
2021/03/07 04:20:46;;;;;;;29.52;16.80;;;;;;;2.79;61.39;100926.63;5016098;28;20049;-60
2021/03/07 04:23:18;;;;;;;20.58;15.40;;;;;;;2.79;60.79;100917.28;5014940;28;20037;-60
2021/03/07 04:25:54;;;;;;;22.88;15.32;;;;;;;2.79;61.41;100916.38;5015957;28;20033;-60
2021/03/07 04:28:34;;;;;;;20.17;15.13;;;;;;;2.78;61.42;100912.94;5015945;28;20516;-60
2021/03/07 04:31:06;;;;;;;31.50;17.63;;;;;;;2.76;61.31;100900.81;5015935;28;20038;-60
2021/03/07 04:33:44;;;;;;;34.53;18.48;;;;;;;2.76;61.46;100911.97;5015097;28;20394;-60
2021/03/07 04:36:18;;;;;;;25.25;17.17;;;;;;;2.76;61.01;100908.50;5014730;28;20044;-60
2021/03/07 04:38:49;;;;;;;27.20;17.73;;;;;;;2.74;60.92;100899.06;5015616;28;20048;-61
2021/03/07 04:41:21;;;;;;;25.52;16.30;;;;;;;2.73;61.00;100904.09;5015968;28;20041;-60
2021/03/07 04:43:56;;;;;;;21.45;17.40;;;;;;;2.72;60.83;100904.88;5014076;28;20073;-60
2021/03/07 04:46:31;;;;;;;26.05;17.10;;;;;;;2.72;61.12;100899.75;5014421;28;20536;-60
2021/03/07 04:49:08;;;;;;;29.13;18.58;;;;;;;2.70;61.11;100898.78;5015533;28;20042;-60
2021/03/07 04:51:41;;;;;;;27.45;17.52;;;;;;;2.68;61.67;100892.69;5015324;28;20519;-60
2021/03/07 04:54:12;;;;;;;26.63;18.98;;;;;;;2.69;61.13;100895.34;5015315;28;20034;-60
2021/03/07 04:56:46;;;;;;;29.67;19.55;;;;;;;2.67;61.25;100896.03;5015402;28;20441;-60
2021/03/07 04:59:20;;;;;;;30.52;19.48;;;;;;;2.63;61.53;100887.28;5014109;28;20037;-60
2021/03/07 05:01:52;;;;;;;26.50;17.30;;;;;;;2.65;61.11;100895.94;5013900;28;20034;-61
2021/03/07 05:04:26;;;;;;;25.02;18.35;;;;;;;2.62;61.00;100890.63;5014028;28;20038;-61
2021/03/07 05:07:00;;;;;;;29.77;18.75;;;;;;;2.61;61.30;100885.44;5015410;28;20075;-60
2021/03/07 05:09:37;;;;;;;27.75;19.13;;;;;;;2.59;61.48;100893.88;5014313;28;20061;-60
2021/03/07 05:12:11;;;;;;;29.88;19.00;;;;;;;2.57;61.27;100885.22;5014186;28;20037;-61
2021/03/07 05:14:52;;;;;;;27.45;18.67;;;;;;;2.57;60.89;100881.78;5014277;28;20495;-61
2021/03/07 05:17:27;;;;;;;31.63;18.65;;;;;;;2.57;61.12;100877.56;5013570;28;20041;-60
2021/03/07 05:20:03;;;;;;;27.38;17.90;;;;;;;2.55;61.30;100884.25;5013528;28;20033;-61
2021/03/07 05:22:41;;;;;;;28.02;17.48;;;;;;;2.58;61.36;100886.09;5013499;28;20042;-61
2021/03/07 05:25:19;;;;;;;25.52;19.15;;;;;;;2.56;61.29;100880.03;5015615;28;20037;-60
2021/03/07 05:27:50;;;;;;;25.92;18.45;;;;;;;2.53;61.34;100884.94;5015191;28;20038;-60
2021/03/07 05:30:20;;;;;;;23.98;17.35;;;;;;;2.53;61.01;100878.16;5013469;28;20576;-60
2021/03/07 05:32:46;;;;;;;24.25;17.83;;;;;;;2.51;61.44;100882.28;5013382;28;20046;-60
2021/03/07 05:35:20;;;;;;;25.67;16.92;;;;;;;2.50;61.23;100879.63;5014610;28;20040;-60
2021/03/07 05:37:57;;;;;;;24.58;16.77;;;;;;;2.49;61.39;100883.84;5013641;28;20038;-61
2021/03/07 05:40:32;;;;;;;26.35;17.95;;;;;;;2.48;61.18;100882.13;5013635;28;20041;-60
2021/03/07 05:43:08;;;;;;;26.35;17.27;;;;;;;2.46;61.25;100882.78;5014579;28;20056;-60
2021/03/07 05:45:42;;;;;;;24.80;17.65;;;;;;;2.46;61.53;100880.22;5013953;28;20030;-60
2021/03/07 05:48:18;;;;;;;25.73;17.27;;;;;;;2.42;61.01;100874.91;5013623;28;20048;-60
2021/03/07 05:50:59;;;;;;;26.05;16.98;;;;;;;2.43;61.56;100870.69;5014619;28;20117;-60
2021/03/07 05:53:33;;;;;;;26.00;17.57;;;;;;;2.41;61.42;100875.69;5014435;28;20042;-60
2021/03/07 05:56:14;;;;;;;28.38;18.33;;;;;;;2.42;61.31;100876.59;5013130;28;20034;-60
2021/03/07 05:58:50;;;;;;;31.17;18.83;;;;;;;2.40;61.26;100879.09;5014449;28;20524;-60
2021/03/07 06:01:22;;;;;;;26.58;17.83;;;;;;;2.39;61.65;100877.31;5013267;28;20041;-60
2021/03/07 06:04:00;;;;;;;27.05;17.85;;;;;;;2.39;61.29;100874.75;5011922;28;20057;-60
2021/03/07 06:06:34;;;;;;;24.13;17.70;;;;;;;2.38;61.01;100883.22;5013428;28;20034;-60
2021/03/07 06:09:22;;;;;;;25.50;17.88;;;;;;;2.36;61.51;100877.09;5012481;28;20046;-60
2021/03/07 06:12:02;;;;;;;25.17;18.35;;;;;;;2.36;61.11;100879.66;4995992;28;20052;-60
2021/03/07 06:14:33;;;;;;;30.65;17.83;;;;;;;2.35;61.56;100877.91;5012253;28;20038;-60
2021/03/07 06:17:10;;;;;;;28.02;19.35;;;;;;;2.33;61.51;100871.78;5013246;28;20038;-60
2021/03/07 06:20:04;;;;;;;29.63;18.35;;;;;;;2.32;61.12;100871.72;5011980;28;20119;-60
2021/03/07 06:22:39;;;;;;;26.52;19.02;;;;;;;2.33;61.30;100876.03;5006747;28;20503;-60
2021/03/07 06:25:15;;;;;;;24.48;18.85;;;;;;;2.30;61.18;100871.59;5012034;28;20042;-60
2021/03/07 06:27:52;;;;;;;30.50;19.67;;;;;;;2.33;61.49;100863.25;5012400;28;20505;-61
2021/03/07 06:30:24;;;;;;;28.52;19.75;;;;;;;2.34;61.08;100865.00;5012787;28;20034;-61
2021/03/07 06:33:00;;;;;;;28.60;19.42;;;;;;;2.33;61.30;100864.13;5013064;28;20038;-60
2021/03/07 06:35:33;;;;;;;29.92;19.35;;;;;;;2.32;61.66;100851.25;5011811;28;20038;-60
2021/03/07 06:38:10;;;;;;;34.38;20.25;;;;;;;2.30;61.53;100858.81;5012861;28;20037;-61
2021/03/07 06:40:47;;;;;;;29.25;19.25;;;;;;;2.30;61.20;100853.69;5012969;28;20053;-59
2021/03/07 06:43:30;;;;;;;30.73;20.65;;;;;;;2.30;60.88;100856.25;5011820;28;20042;-60
2021/03/07 06:46:01;;;;;;;28.85;20.00;;;;;;;2.31;61.51;100858.00;5013207;28;20128;-61
2021/03/07 06:48:35;;;;;;;26.48;18.52;;;;;;;2.31;61.24;100859.72;5012803;28;20050;-60
2021/03/07 06:51:03;;;;;;;24.35;19.30;;;;;;;2.31;61.54;100855.47;5013227;28;20123;-60
2021/03/07 06:53:44;;;;;;;25.42;18.77;;;;;;;2.31;61.24;100863.13;5011495;28;20034;-60
2021/03/07 06:56:45;;;;;;;26.33;18.95;;;;;;;2.32;61.62;100862.34;5011794;28;20042;-60
2021/03/07 06:59:22;;;;;;;27.05;18.90;;;;;;;2.32;61.10;100862.34;5016386;28;20500;-60
2021/03/07 07:01:52;;;;;;;26.63;18.48;;;;;;;2.34;61.41;100865.00;4994893;28;687979;-60
2021/03/07 07:04:28;;;;;;;31.70;19.88;;;;;;;2.35;61.35;100869.31;5016325;28;20034;-60
2021/03/07 07:07:07;;;;;;;29.13;19.50;;;;;;;2.32;61.13;100866.59;5017493;28;20036;-60
2021/03/07 07:09:41;;;;;;;25.75;18.17;;;;;;;2.32;61.53;100862.34;5017692;28;20486;-61
2021/03/07 07:12:23;;;;;;;24.70;18.95;;;;;;;2.31;61.61;100870.81;5016411;28;20489;-60
2021/03/07 07:15:11;;;;;;;29.27;21.20;;;;;;;2.33;61.23;100868.38;4999821;28;20449;-60
2021/03/07 07:17:46;;;;;;;27.05;19.38;;;;;;;2.34;61.39;100871.00;5017261;28;20117;-61
2021/03/07 07:20:16;;;;;;;29.85;19.52;;;;;;;2.35;61.53;100872.78;5016959;28;20038;-60
2021/03/07 07:22:53;;;;;;;25.88;19.45;;;;;;;2.35;61.10;100870.22;4999669;28;20045;-60
2021/03/07 07:25:24;;;;;;;28.80;20.25;;;;;;;2.37;61.21;100871.22;5015770;28;20034;-60
2021/03/07 07:27:55;;;;;;;31.55;22.00;;;;;;;2.36;61.55;100869.44;5015961;28;20026;-60
2021/03/07 07:30:26;;;;;;;30.88;21.88;;;;;;;2.38;61.31;100870.41;5016099;28;20136;-60
2021/03/07 07:33:01;;;;;;;32.03;20.73;;;;;;;2.39;61.68;100873.84;5016843;28;20506;-60
2021/03/07 07:35:38;;;;;;;29.00;20.73;;;;;;;2.39;61.66;100863.63;5015386;28;20092;-60
2021/03/07 07:38:13;;;;;;;36.28;21.45;;;;;;;2.39;61.81;100867.06;5016775;28;20433;-60
2021/03/07 07:40:50;;;;;;;33.53;22.13;;;;;;;2.40;61.49;100871.41;5015467;28;20493;-60
2021/03/07 07:43:22;;;;;;;29.73;20.80;;;;;;;2.42;61.60;100861.25;5017440;28;20049;-60
2021/03/07 07:46:13;;;;;;;30.95;21.83;;;;;;;2.41;61.76;100862.91;5016908;28;20034;-60
2021/03/07 07:48:44;;;;;;;32.53;22.33;;;;;;;2.44;61.93;100859.69;5010979;28;20379;-60
2021/03/07 07:51:35;;;;;;;32.63;22.92;;;;;;;2.44;61.74;100864.78;5016592;28;20033;-60
2021/03/07 07:54:32;;;;;;;25.75;20.30;;;;;;;2.46;61.70;100859.75;4996069;28;20048;-60
2021/03/07 07:57:03;;;;;;;26.80;20.38;;;;;;;2.48;62.11;100866.75;4998778;28;20489;-60
2021/03/07 07:59:51;;;;;;;27.92;19.88;;;;;;;2.49;61.71;100852.28;5016364;28;20026;-60
2021/03/07 08:02:46;;;;;;;27.70;18.85;;;;;;;2.50;61.73;100859.16;5015945;28;20049;-60
2021/03/07 08:05:20;;;;;;;28.33;20.10;;;;;;;2.51;61.94;100864.38;5009333;28;20153;-60
2021/03/07 08:08:01;;;;;;;28.60;19.00;;;;;;;2.52;62.08;100860.16;5015818;28;20086;-60
2021/03/07 08:10:48;;;;;;;28.08;20.17;;;;;;;2.52;61.60;100858.47;4998614;28;20148;-60
2021/03/07 08:13:34;;;;;;;26.38;19.92;;;;;;;2.53;62.00;100861.91;5015277;28;20046;-60
2021/03/07 08:16:04;;;;;;;29.80;21.17;;;;;;;2.55;62.03;100856.09;5008758;28;20480;-61
2021/03/07 08:18:55;;;;;;;26.15;20.27;;;;;;;2.56;61.89;100854.44;5014678;28;20042;-60
2021/03/07 08:21:24;;;;;;;29.98;20.35;;;;;;;2.57;61.52;100851.97;5016436;28;20061;-60
2021/03/07 08:23:59;;;;;;;25.17;18.77;;;;;;;2.59;61.55;100845.25;5016027;28;20030;-60
2021/03/07 08:26:48;;;;;;;26.60;20.20;;;;;;;2.60;61.93;100848.69;4998596;28;20052;-62
2021/03/07 08:29:38;;;;;;;27.17;20.17;;;;;;;2.63;61.79;100838.66;5015056;28;20045;-60
2021/03/07 08:32:37;;;;;;;26.48;18.98;;;;;;;2.63;61.97;100842.91;5015886;28;20470;-60
2021/03/07 08:35:40;;;;;;;27.67;19.88;;;;;;;2.67;62.26;100832.94;5007276;28;20121;-60
2021/03/07 08:38:17;;;;;;;24.27;18.30;;;;;;;2.70;61.89;100827.09;4993517;28;20050;-60
2021/03/07 08:40:59;;;;;;;23.27;18.15;;;;;;;2.73;61.79;100827.28;4998804;28;20375;-60
2021/03/07 08:43:37;;;;;;;24.20;18.52;;;;;;;2.76;62.07;100826.56;4998020;28;20033;-60
2021/03/07 08:46:11;;;;;;;25.05;18.33;;;;;;;2.79;62.32;100826.78;4998337;28;20034;-60
2021/03/07 08:48:47;;;;;;;25.70;19.05;;;;;;;2.81;61.85;100828.63;5015857;28;20073;-60
2021/03/07 08:51:20;;;;;;;25.02;18.20;;;;;;;2.84;61.45;100827.94;5014467;28;20033;-60
2021/03/07 08:53:50;;;;;;;24.20;18.30;;;;;;;2.87;62.08;100817.88;5014310;28;20061;-60
2021/03/07 08:56:27;;;;;;;31.93;18.40;;;;;;;2.89;62.24;100821.41;5014890;28;20037;-60
2021/03/07 08:59:00;;;;;;;26.45;18.80;;;;;;;2.92;61.87;100821.59;5015028;28;20772;-60
2021/03/07 09:01:30;;;;;;;;;;;;;;;2.94;61.70;100820.00;4998473;28;20065;-60
2021/03/07 09:04:12;;;;;;;23.00;17.77;;;;;;;2.97;61.59;100820.19;5015420;28;20435;-60
2021/03/07 09:06:43;;;;;;;25.10;18.63;;;;;;;3.00;62.42;100820.38;4997647;28;20042;-60
2021/03/07 09:09:20;;;;;;;23.90;18.75;;;;;;;3.03;62.30;100822.22;5014079;28;20052;-60
2021/03/07 09:11:59;;;;;;;22.45;18.63;;;;;;;3.05;62.11;100818.06;5015016;28;20104;-60
2021/03/07 09:14:43;;;;;;;22.90;17.95;;;;;;;3.10;61.71;100818.34;5014019;28;20074;-60
2021/03/07 09:17:32;;;;;;;22.30;16.98;;;;;;;3.11;61.77;100818.44;5015278;28;20037;-60
2021/03/07 09:20:05;;;;;;;23.50;18.48;;;;;;;3.15;61.73;100824.63;5013115;28;20038;-61
2021/03/07 09:22:37;;;;;;;24.25;18.25;;;;;;;3.17;61.67;100817.91;5014000;28;20093;-60
2021/03/07 09:25:15;;;;;;;25.42;19.05;;;;;;;3.19;62.06;100816.34;5014831;28;20519;-61
2021/03/07 09:27:49;;;;;;;25.60;19.27;;;;;;;3.22;61.88;100803.69;4997754;28;20041;-61
2021/03/07 09:30:24;;;;;;;;;;;;;;;3.23;61.67;100802.88;4997677;28;20509;-60
2021/03/07 09:33:15;;;;;;;26.75;20.33;;;;;;;3.25;62.21;100801.31;5014863;28;19913;-61
2021/03/07 09:35:48;;;;;;;24.00;19.77;;;;;;;3.27;62.35;100804.84;5014604;28;20037;-60
2021/03/07 09:38:22;;;;;;;25.05;19.83;;;;;;;3.30;61.66;100805.03;4997443;28;20427;-60
2021/03/07 09:40:59;;;;;;;27.52;20.00;;;;;;;3.32;61.98;100802.53;5013496;28;20038;-60
2021/03/07 09:43:36;;;;;;;26.35;20.73;;;;;;;3.34;62.06;100796.72;4997232;28;20084;-60
2021/03/07 09:46:09;;;;;;;29.70;20.00;;;;;;;3.38;62.25;100802.00;5013249;28;20037;-60
2021/03/07 09:48:46;;;;;;;24.85;19.85;;;;;;;3.39;61.71;100791.84;5014736;28;20100;-60
2021/03/07 09:51:21;;;;;;;28.65;20.27;;;;;;;3.40;61.40;100793.63;5013644;28;20037;-60
2021/03/07 09:53:49;;;;;;;26.48;21.08;;;;;;;3.42;61.48;100791.13;5013626;28;20045;-61
2021/03/07 09:56:35;;;;;;;26.15;19.38;;;;;;;3.45;62.09;100796.44;4996739;28;20396;-61
2021/03/07 09:59:20;;;;;;;24.33;19.20;;;;;;;3.46;62.06;100796.50;5013663;28;20070;-61
2021/03/07 10:01:53;;;;;;;27.58;20.20;;;;;;;3.48;61.85;100801.75;5013053;28;20576;-61
2021/03/07 10:04:41;;;;;;;23.58;19.48;;;;;;;3.49;61.67;100796.69;5013021;28;20543;-60
2021/03/07 10:07:30;;;;;;;27.10;20.67;;;;;;;3.50;61.35;100795.03;5012991;28;20065;-60
2021/03/07 10:10:18;;;;;;;23.75;19.25;;;;;;;3.51;62.01;100794.22;5014524;28;20048;-61
2021/03/07 10:13:01;;;;;;;27.10;20.08;;;;;;;3.53;61.88;100797.75;5013046;28;20038;-60
2021/03/07 10:15:39;;;;;;;30.55;20.75;;;;;;;3.55;61.80;100796.16;5013949;28;20049;-61
2021/03/07 10:18:13;;;;;;;22.60;18.60;;;;;;;3.56;61.93;100795.38;5014138;28;20030;-61
2021/03/07 10:21:01;;;;;;;24.73;18.98;;;;;;;3.58;61.88;100803.16;5013992;28;20038;-61
2021/03/07 10:23:33;;;;;;;23.30;18.63;;;;;;;3.59;61.47;100789.50;5013911;28;20103;-61
2021/03/07 10:26:04;;;;;;;21.40;18.15;;;;;;;3.61;61.75;100793.06;5013970;28;20042;-60
2021/03/07 10:28:43;;;;;;;24.45;19.15;;;;;;;3.61;61.93;100799.06;5013954;28;20034;-60
2021/03/07 10:31:18;;;;;;;21.92;18.15;;;;;;;3.64;61.68;100786.44;5013893;28;20473;-61
2021/03/07 10:33:58;;;;;;;23.08;18.98;;;;;;;3.65;61.90;100788.22;5013932;28;20026;-61
2021/03/07 10:36:39;;;;;;;24.13;17.65;;;;;;;3.66;62.30;100784.81;5014036;28;20042;-60
2021/03/07 10:39:14;;;;;;;23.45;17.30;;;;;;;3.68;62.35;100789.16;4996086;28;20038;-61
2021/03/07 10:41:50;;;;;;;22.13;17.58;;;;;;;3.70;61.95;100785.00;5013872;28;20037;-60
2021/03/07 10:44:30;;;;;;;22.83;17.17;;;;;;;3.70;61.73;100783.31;5012081;28;20026;-61
2021/03/07 10:47:23;;;;;;;26.60;18.08;;;;;;;3.72;61.67;100788.53;5013988;28;20037;-60
2021/03/07 10:49:51;;;;;;;24.40;17.05;;;;;;;3.74;61.60;100789.50;5013571;28;20042;-60
2021/03/07 10:52:22;;;;;;;16.30;13.95;;;;;;;3.76;61.92;100795.59;5013711;28;20474;-61
2021/03/07 10:54:50;;;;;;;24.05;17.40;;;;;;;3.77;61.91;100792.25;5013636;28;20038;-61
2021/03/07 10:57:26;;;;;;;17.75;15.32;;;;;;;3.76;61.72;100788.78;5012320;28;20030;-61
2021/03/07 10:59:54;;;;;;;18.67;15.70;;;;;;;3.77;61.53;100795.66;5012870;28;20030;-61
2021/03/07 11:02:22;;;;;;;25.27;16.60;;;;;;;3.79;62.11;100795.78;5013302;28;20050;-61
2021/03/07 11:04:49;;;;;;;20.20;16.23;;;;;;;3.79;62.14;100799.22;5013626;28;20037;-61
2021/03/07 11:07:23;;;;;;;22.58;16.05;;;;;;;3.80;61.92;100798.41;5012083;28;20053;-61
2021/03/07 11:09:51;;;;;;;21.10;15.38;;;;;;;3.83;62.02;100799.38;5012259;28;20050;-60
2021/03/07 11:12:24;;;;;;;21.58;16.85;;;;;;;3.82;62.25;100788.22;5013870;28;20129;-61
2021/03/07 11:14:58;;;;;;;19.15;15.60;;;;;;;3.83;62.39;100782.31;5012454;28;20501;-61
2021/03/07 11:17:29;;;;;;;19.63;15.10;;;;;;;3.83;61.72;100784.88;5013455;28;20117;-61
2021/03/07 11:20:01;;;;;;;20.08;14.45;;;;;;;3.86;61.83;100791.88;5013640;28;20113;-61
2021/03/07 11:22:29;;;;;;;22.52;15.45;;;;;;;3.86;62.18;100789.31;5012428;28;20042;-61
2021/03/07 11:24:55;;;;;;;20.00;14.68;;;;;;;3.86;61.83;100781.59;5013353;28;20040;-61
2021/03/07 11:27:25;;;;;;;20.60;16.02;;;;;;;3.88;62.24;100783.44;4995971;28;20119;-61
2021/03/07 11:29:53;;;;;;;19.27;15.48;;;;;;;3.89;61.79;100790.34;5012700;28;20030;-61
2021/03/07 11:32:19;;;;;;;22.40;17.02;;;;;;;3.88;62.13;100775.75;5013342;28;20104;-61
2021/03/07 11:34:47;;;;;;;21.98;15.90;;;;;;;3.89;61.95;100780.09;5012274;28;20038;-61
2021/03/07 11:37:20;;;;;;;21.90;16.85;;;;;;;3.89;62.25;100780.09;5013304;28;20042;-60
2021/03/07 11:39:46;;;;;;;21.38;15.75;;;;;;;3.91;61.58;100772.47;4996062;28;20026;-60
2021/03/07 11:42:14;;;;;;;20.77;16.20;;;;;;;3.93;62.03;100773.44;5013436;28;20101;-61
2021/03/07 11:44:40;;;;;;;18.35;14.98;;;;;;;3.95;61.89;100769.28;5016861;28;20030;-61
2021/03/07 11:47:06;;;;;;;23.13;15.38;;;;;;;3.94;61.61;100772.63;5016758;28;20084;-61
2021/03/07 11:49:32;;;;;;;21.42;16.40;;;;;;;3.94;61.69;100770.97;4999045;28;20124;-61
2021/03/07 11:52:03;;;;;;;24.67;17.00;;;;;;;3.95;62.05;100761.59;4998925;28;20077;-61
2021/03/07 11:54:34;;;;;;;19.60;16.60;;;;;;;3.94;61.90;100764.94;5015220;28;20038;-61